Wednesday, November 22, 2017, 11:34 AM EST
Back to Local

KTEB, Teterboro Airport

Location: South Hackensack, NJ, United States Lat: 40.867
Local Time: 11:34 AM EST (16:34 GMT) Lon: -74.05
Time Zone: US/Eastern Elev: 9 ft

Show me the last for .
Show Decoded

2017-11-22 10:51 METAR KTEB 221551Z 29005KT 10SM OVC065 10/08 A2989 RMK AO2 SLP122 T01000078 =
2017-11-22 09:51 METAR KTEB 221451Z 09005KT 10SM BKN048 BKN090 OVC110 09/07 A2987 RMK AO2 RAE21
                 PRESFR SLP115 P0001 60005 T00940072 58012 =
2017-11-22 08:51 METAR KTEB 221351Z 35003KT 4SM -RA BR OVC070 08/06 A2990 RMK AO2 SLP125 P0004
                 T00830061 =
2017-11-22 07:51 METAR KTEB 221251Z 32006KT 4SM -RA BR BKN060 OVC075 08/05 A2990 RMK AO2
                 DZE1155RAB01 SLP126 P0000 T00780050 =
2017-11-22 06:51 METAR KTEB 221151Z 00000KT 7SM -DZ FEW019 BKN043 OVC090 08/04 A2991 RMK AO2
                 DZB44 SLP127 P0000 60000 T00780039 10083 20061 55014 =
2017-11-22 05:51 METAR KTEB 221051Z 00000KT 10SM SCT026 BKN041 BKN095 08/04 A2989 RMK AO2 SLP123
                 T00780044 =
2017-11-22 04:51 METAR KTEB 220951Z 00000KT 10SM BKN042 BKN110 08/04 A2992 RMK AO2 SLP132
                 T00780039 =
2017-11-22 03:51 METAR KTEB 220851Z 01003KT 10SM CLR 07/04 A2995 RMK AO2 SLP141 T00720039 56016 =
2017-11-22 02:51 METAR KTEB 220751Z 00000KT 10SM CLR 07/04 A2996 RMK AO2 SLP145 T00670039 =
2017-11-22 01:51 METAR KTEB 220651Z 00000KT 10SM CLR 07/04 A2998 RMK AO2 SLP152 T00670039 =
2017-11-22 00:51 METAR KTEB 220551Z 00000KT 10SM CLR 07/04 A3000 RMK AO2 SLP157 T00720039 10122
                 20072 58013 =
2017-11-21 23:51 METAR KTEB 220451Z 00000KT 10SM CLR 08/04 A3002 RMK AO2 SLP164 T00780039
                 401670006 =
2017-11-21 22:51 METAR KTEB 220351Z 21003KT 10SM CLR 08/04 A3003 RMK AO2 SLP169 T00830039 =
2017-11-21 21:51 METAR KTEB 220251Z VRB03KT 10SM CLR 09/03 A3003 RMK AO2 SLP170 T00940033 50001 =
2017-11-21 20:51 METAR KTEB 220151Z 00000KT 10SM CLR 08/02 A3004 RMK AO2 SLP172 T00830017 =
2017-11-21 19:51 METAR KTEB 220051Z 21004KT 10SM CLR 09/02 A3004 RMK AO2 SLP172 T00940022 =
2017-11-21 18:51 METAR KTEB 212351Z 18004KT 10SM CLR 11/M01 A3003 RMK AO2 SLP169 60000 T01111006
                 10167 20106 53009 =
2017-11-21 17:51 METAR KTEB 212251Z COR 20008G12KT 10SM CLR 13/M01 A3002 RMK AO2 RAB2154E2158
                 SLP166 P0000 T01281011 =
2017-11-21 16:51 METAR KTEB 212151Z 19009KT 10SM CLR 14/M02 A3001 RMK AO2 RAB23E34 SLP161 P0000
                 T01391017 =
2017-11-21 15:51 METAR KTEB 212051Z 21011KT 10SM CLR 14/M01 A3001 RMK AO2 SLP160 T01391011 55012
                 =
2017-11-21 14:51 METAR KTEB 211951Z 19012KT 10SM CLR 15/M01 A3000 RMK AO2 SLP159 T01501011 =
2017-11-21 13:51 METAR KTEB 211851Z 21010KT 10SM CLR 15/M01 A3002 RMK AO2 SLP165 T01501011 =
2017-11-21 12:51 METAR KTEB 211751Z 21012KT 10SM CLR 13/00 A3004 RMK AO2 SLP172 T01330000 10133
                 20006 58027 =
2017-11-21 11:51 METAR KTEB 211651Z 21017G22KT 10SM CLR 13/00 A3007 RMK AO2 SLP181 T01280000 =

Support USWX by starting your Amazon purchase here.